sensor_id;sensor_type;location;lat;lon;timestamp;temperature;humidity
8953;DHT22;4511;50.890;8.054;2023-04-09T00:01:02;8.40;99.90
8953;DHT22;4511;50.890;8.054;2023-04-09T00:03:29;8.40;99.90
8953;DHT22;4511;50.890;8.054;2023-04-09T00:05:55;8.50;99.90
8953;DHT22;4511;50.890;8.054;2023-04-09T00:08:23;8.40;99.90
8953;DHT22;4511;50.890;8.054;2023-04-09T00:10:51;8.40;99.90
8953;DHT22;4511;50.890;8.054;2023-04-09T00:13:18;8.40;99.90
8953;DHT22;4511;50.890;8.054;2023-04-09T00:15:45;8.30;99.90
8953;DHT22;4511;50.890;8.054;2023-04-09T00:18:12;8.20;99.90
8953;DHT22;4511;50.890;8.054;2023-04-09T00:20:39;8.20;99.90
8953;DHT22;4511;50.890;8.054;2023-04-09T00:23:06;8.20;99.90
8953;DHT22;4511;50.890;8.054;2023-04-09T00:25:34;8.20;99.90
8953;DHT22;4511;50.890;8.054;2023-04-09T00:28:01;8.10;99.90
8953;DHT22;4511;50.890;8.054;2023-04-09T00:30:28;8.10;99.90
8953;DHT22;4511;50.890;8.054;2023-04-09T00:32:55;8.10;99.90
8953;DHT22;4511;50.890;8.054;2023-04-09T00:35:22;8.00;99.90
8953;DHT22;4511;50.890;8.054;2023-04-09T00:37:49;8.00;99.90
8953;DHT22;4511;50.890;8.054;2023-04-09T00:40:15;8.00;99.90
8953;DHT22;4511;50.890;8.054;2023-04-09T00:42:43;7.90;99.90
8953;DHT22;4511;50.890;8.054;2023-04-09T00:45:10;7.80;99.90
8953;DHT22;4511;50.890;8.054;2023-04-09T00:47:37;7.80;99.90
8953;DHT22;4511;50.890;8.054;2023-04-09T00:50:05;7.70;99.90
8953;DHT22;4511;50.890;8.054;2023-04-09T00:52:32;7.60;99.90
8953;DHT22;4511;50.890;8.054;2023-04-09T00:55:00;7.50;99.90
8953;DHT22;4511;50.890;8.054;2023-04-09T00:57:27;7.40;99.90
8953;DHT22;4511;50.890;8.054;2023-04-09T00:59:55;7.30;99.90
8953;DHT22;4511;50.890;8.054;2023-04-09T01:02:22;7.30;99.90
8953;DHT22;4511;50.890;8.054;2023-04-09T01:04:50;7.30;99.90
8953;DHT22;4511;50.890;8.054;2023-04-09T01:07:23;7.30;99.90
8953;DHT22;4511;50.890;8.054;2023-04-09T01:09:56;7.20;99.90
8953;DHT22;4511;50.890;8.054;2023-04-09T01:12:32;7.20;99.90
8953;DHT22;4511;50.890;8.054;2023-04-09T01:15:04;7.10;99.90
8953;DHT22;4511;50.890;8.054;2023-04-09T01:17:37;7.00;99.90
8953;DHT22;4511;50.890;8.054;2023-04-09T01:20:09;7.00;99.90
8953;DHT22;4511;50.890;8.054;2023-04-09T01:22:47;6.90;99.90
8953;DHT22;4511;50.890;8.054;2023-04-09T01:25:27;6.90;99.90
8953;DHT22;4511;50.890;8.054;2023-04-09T01:30:49;6.60;99.90
8953;DHT22;4511;50.890;8.054;2023-04-09T01:33:17;6.50;99.90
8953;DHT22;4511;50.890;8.054;2023-04-09T01:35:46;6.50;99.90
8953;DHT22;4511;50.890;8.054;2023-04-09T01:38:16;6.50;99.90
8953;DHT22;4511;50.890;8.054;2023-04-09T01:40:44;6.40;99.90
8953;DHT22;4511;50.890;8.054;2023-04-09T01:43:13;6.30;99.90
8953;DHT22;4511;50.890;8.054;2023-04-09T01:45:40;6.30;99.90
8953;DHT22;4511;50.890;8.054;2023-04-09T01:48:08;6.40;99.90
8953;DHT22;4511;50.890;8.054;2023-04-09T01:50:36;6.40;99.90
8953;DHT22;4511;50.890;8.054;2023-04-09T01:53:03;6.40;99.90
8953;DHT22;4511;50.890;8.054;2023-04-09T01:55:29;6.30;99.90
8953;DHT22;4511;50.890;8.054;2023-04-09T01:57:56;6.40;99.90
8953;DHT22;4511;50.890;8.054;2023-04-09T02:00:30;6.30;99.90
8953;DHT22;4511;50.890;8.054;2023-04-09T02:03:03;6.20;99.90
8953;DHT22;4511;50.890;8.054;2023-04-09T02:05:34;6.20;99.90
8953;DHT22;4511;50.890;8.054;2023-04-09T02:08:03;6.20;99.90
8953;DHT22;4511;50.890;8.054;2023-04-09T02:10:34;6.30;99.90
8953;DHT22;4511;50.890;8.054;2023-04-09T02:13:03;6.20;99.90
8953;DHT22;4511;50.890;8.054;2023-04-09T02:15:33;6.30;99.90
8953;DHT22;4511;50.890;8.054;2023-04-09T02:18:01;6.20;99.90
8953;DHT22;4511;50.890;8.054;2023-04-09T02:20:28;6.20;99.90
8953;DHT22;4511;50.890;8.054;2023-04-09T02:22:55;6.20;99.90
8953;DHT22;4511;50.890;8.054;2023-04-09T02:25:22;6.20;99.90
8953;DHT22;4511;50.890;8.054;2023-04-09T02:27:49;6.10;99.90
8953;DHT22;4511;50.890;8.054;2023-04-09T02:30:15;6.10;99.90
8953;DHT22;4511;50.890;8.054;2023-04-09T02:32:43;6.00;99.90
8953;DHT22;4511;50.890;8.054;2023-04-09T02:35:10;6.10;99.90
8953;DHT22;4511;50.890;8.054;2023-04-09T02:37:37;6.00;99.90
8953;DHT22;4511;50.890;8.054;2023-04-09T02:40:04;5.90;99.90
8953;DHT22;4511;50.890;8.054;2023-04-09T02:42:31;6.00;99.90
8953;DHT22;4511;50.890;8.054;2023-04-09T02:44:58;6.00;99.90
8953;DHT22;4511;50.890;8.054;2023-04-09T02:47:25;5.90;99.90
8953;DHT22;4511;50.890;8.054;2023-04-09T02:49:53;5.90;99.90
8953;DHT22;4511;50.890;8.054;2023-04-09T02:52:19;5.90;99.90
8953;DHT22;4511;50.890;8.054;2023-04-09T02:54:48;6.00;99.90
8953;DHT22;4511;50.890;8.054;2023-04-09T02:57:15;6.00;99.90
8953;DHT22;4511;50.890;8.054;2023-04-09T02:59:42;6.00;99.90
8953;DHT22;4511;50.890;8.054;2023-04-09T03:02:09;6.00;99.90
8953;DHT22;4511;50.890;8.054;2023-04-09T03:04:36;6.00;99.90
8953;DHT22;4511;50.890;8.054;2023-04-09T03:07:04;6.00;99.90
8953;DHT22;4511;50.890;8.054;2023-04-09T03:09:30;6.00;99.90
8953;DHT22;4511;50.890;8.054;2023-04-09T03:11:57;6.00;99.90
8953;DHT22;4511;50.890;8.054;2023-04-09T03:14:24;5.90;99.90
8953;DHT22;4511;50.890;8.054;2023-04-09T03:16:51;5.90;99.90
8953;DHT22;4511;50.890;8.054;2023-04-09T03:19:17;5.90;99.90
8953;DHT22;4511;50.890;8.054;2023-04-09T03:21:44;5.90;99.90
8953;DHT22;4511;50.890;8.054;2023-04-09T03:24:15;6.00;99.90
8953;DHT22;4511;50.890;8.054;2023-04-09T03:26:41;6.00;99.90
8953;DHT22;4511;50.890;8.054;2023-04-09T03:29:08;5.80;99.90
8953;DHT22;4511;50.890;8.054;2023-04-09T03:31:35;5.70;99.90
8953;DHT22;4511;50.890;8.054;2023-04-09T03:34:01;5.70;99.90
8953;DHT22;4511;50.890;8.054;2023-04-09T03:36:28;5.70;99.90
8953;DHT22;4511;50.890;8.054;2023-04-09T03:38:55;5.70;99.90
8953;DHT22;4511;50.890;8.054;2023-04-09T03:41:24;5.80;99.90
8953;DHT22;4511;50.890;8.054;2023-04-09T03:43:51;5.90;99.90
8953;DHT22;4511;50.890;8.054;2023-04-09T03:46:18;5.90;99.90
8953;DHT22;4511;50.890;8.054;2023-04-09T03:48:45;6.00;99.90
8953;DHT22;4511;50.890;8.054;2023-04-09T03:51:12;6.00;99.90
8953;DHT22;4511;50.890;8.054;2023-04-09T03:53:39;5.90;99.90
8953;DHT22;4511;50.890;8.054;2023-04-09T03:56:06;5.90;99.90
8953;DHT22;4511;50.890;8.054;2023-04-09T03:58:35;5.90;99.90
8953;DHT22;4511;50.890;8.054;2023-04-09T04:01:02;6.00;99.90
8953;DHT22;4511;50.890;8.054;2023-04-09T04:03:28;6.00;99.90
8953;DHT22;4511;50.890;8.054;2023-04-09T04:05:59;6.00;99.90
8953;DHT22;4511;50.890;8.054;2023-04-09T04:08:26;6.00;99.90
8953;DHT22;4511;50.890;8.054;2023-04-09T04:10:52;5.90;99.90
8953;DHT22;4511;50.890;8.054;2023-04-09T04:13:19;5.90;99.90
8953;DHT22;4511;50.890;8.054;2023-04-09T04:15:47;6.00;99.90
8953;DHT22;4511;50.890;8.054;2023-04-09T04:18:14;5.80;99.90
8953;DHT22;4511;50.890;8.054;2023-04-09T04:20:41;5.80;99.90
8953;DHT22;4511;50.890;8.054;2023-04-09T04:23:08;5.80;99.90
8953;DHT22;4511;50.890;8.054;2023-04-09T04:25:35;5.80;99.90
8953;DHT22;4511;50.890;8.054;2023-04-09T04:28:01;5.80;99.90
8953;DHT22;4511;50.890;8.054;2023-04-09T04:30:28;5.80;99.90
8953;DHT22;4511;50.890;8.054;2023-04-09T04:32:56;5.90;99.90
8953;DHT22;4511;50.890;8.054;2023-04-09T04:35:23;5.80;99.90
8953;DHT22;4511;50.890;8.054;2023-04-09T04:37:50;5.90;99.90
8953;DHT22;4511;50.890;8.054;2023-04-09T04:40:16;6.00;99.90
8953;DHT22;4511;50.890;8.054;2023-04-09T04:42:43;6.00;99.90
8953;DHT22;4511;50.890;8.054;2023-04-09T04:45:10;5.90;99.90
8953;DHT22;4511;50.890;8.054;2023-04-09T04:47:37;5.90;99.90
8953;DHT22;4511;50.890;8.054;2023-04-09T04:50:08;5.90;99.90
8953;DHT22;4511;50.890;8.054;2023-04-09T04:52:35;5.90;99.90
8953;DHT22;4511;50.890;8.054;2023-04-09T04:55:03;5.90;99.90
8953;DHT22;4511;50.890;8.054;2023-04-09T04:57:30;6.00;99.90
8953;DHT22;4511;50.890;8.054;2023-04-09T04:59:57;6.00;99.90
8953;DHT22;4511;50.890;8.054;2023-04-09T05:02:24;6.00;99.90
8953;DHT22;4511;50.890;8.054;2023-04-09T05:04:51;6.00;99.90
8953;DHT22;4511;50.890;8.054;2023-04-09T05:07:19;6.00;99.90
8953;DHT22;4511;50.890;8.054;2023-04-09T05:09:45;6.10;99.90
8953;DHT22;4511;50.890;8.054;2023-04-09T05:12:12;6.10;99.90
8953;DHT22;4511;50.890;8.054;2023-04-09T05:14:39;6.00;99.90
8953;DHT22;4511;50.890;8.054;2023-04-09T05:17:06;6.10;99.90
8953;DHT22;4511;50.890;8.054;2023-04-09T05:19:33;6.10;99.90
8953;DHT22;4511;50.890;8.054;2023-04-09T05:22:00;6.10;99.90
8953;DHT22;4511;50.890;8.054;2023-04-09T05:24:28;6.10;99.90
8953;DHT22;4511;50.890;8.054;2023-04-09T05:26:54;6.10;99.90
8953;DHT22;4511;50.890;8.054;2023-04-09T05:29:22;6.10;99.90
8953;DHT22;4511;50.890;8.054;2023-04-09T05:31:49;6.10;99.90
8953;DHT22;4511;50.890;8.054;2023-04-09T05:34:15;6.20;99.90
8953;DHT22;4511;50.890;8.054;2023-04-09T05:36:42;6.20;99.90
8953;DHT22;4511;50.890;8.054;2023-04-09T05:39:09;6.20;99.90
8953;DHT22;4511;50.890;8.054;2023-04-09T05:41:37;6.30;99.90
8953;DHT22;4511;50.890;8.054;2023-04-09T05:44:05;6.30;99.90
8953;DHT22;4511;50.890;8.054;2023-04-09T05:46:32;6.30;99.90
8953;DHT22;4511;50.890;8.054;2023-04-09T05:48:58;6.30;99.90
8953;DHT22;4511;50.890;8.054;2023-04-09T05:51:25;6.40;99.90
8953;DHT22;4511;50.890;8.054;2023-04-09T05:53:52;6.40;99.90
8953;DHT22;4511;50.890;8.054;2023-04-09T05:56:19;6.40;99.90
8953;DHT22;4511;50.890;8.054;2023-04-09T05:58:48;6.50;99.90
8953;DHT22;4511;50.890;8.054;2023-04-09T06:01:15;6.60;99.90
8953;DHT22;4511;50.890;8.054;2023-04-09T06:03:42;6.70;99.90
8953;DHT22;4511;50.890;8.054;2023-04-09T06:06:09;6.80;99.90
8953;DHT22;4511;50.890;8.054;2023-04-09T06:08:36;6.80;99.90
8953;DHT22;4511;50.890;8.054;2023-04-09T06:11:03;6.80;99.90
8953;DHT22;4511;50.890;8.054;2023-04-09T06:13:32;6.80;99.90
8953;DHT22;4511;50.890;8.054;2023-04-09T06:16:03;6.80;99.90
8953;DHT22;4511;50.890;8.054;2023-04-09T06:18:29;6.80;99.90
8953;DHT22;4511;50.890;8.054;2023-04-09T06:21:01;6.90;99.90
8953;DHT22;4511;50.890;8.054;2023-04-09T06:23:27;6.90;99.90
8953;DHT22;4511;50.890;8.054;2023-04-09T06:25:54;7.00;99.90
8953;DHT22;4511;50.890;8.054;2023-04-09T06:28:21;7.00;99.90
8953;DHT22;4511;50.890;8.054;2023-04-09T06:30:48;7.10;99.90
8953;DHT22;4511;50.890;8.054;2023-04-09T06:33:16;7.20;99.90
8953;DHT22;4511;50.890;8.054;2023-04-09T06:35:43;7.10;99.90
8953;DHT22;4511;50.890;8.054;2023-04-09T06:38:10;7.00;99.90
8953;DHT22;4511;50.890;8.054;2023-04-09T06:40:37;7.10;99.90
8953;DHT22;4511;50.890;8.054;2023-04-09T06:43:04;7.10;99.90
8953;DHT22;4511;50.890;8.054;2023-04-09T06:45:31;7.10;99.90
8953;DHT22;4511;50.890;8.054;2023-04-09T06:47:58;7.20;99.90
8953;DHT22;4511;50.890;8.054;2023-04-09T06:50:26;7.20;99.90
8953;DHT22;4511;50.890;8.054;2023-04-09T06:52:53;7.20;99.90
8953;DHT22;4511;50.890;8.054;2023-04-09T06:55:20;7.30;99.90
8953;DHT22;4511;50.890;8.054;2023-04-09T06:57:47;7.40;99.90
8953;DHT22;4511;50.890;8.054;2023-04-09T07:00:14;7.50;99.90
8953;DHT22;4511;50.890;8.054;2023-04-09T07:02:41;7.50;99.90
8953;DHT22;4511;50.890;8.054;2023-04-09T07:05:08;7.60;99.90
8953;DHT22;4511;50.890;8.054;2023-04-09T07:07:36;7.70;99.90
8953;DHT22;4511;50.890;8.054;2023-04-09T07:10:05;7.80;99.90
8953;DHT22;4511;50.890;8.054;2023-04-09T07:12:32;7.80;99.90
8953;DHT22;4511;50.890;8.054;2023-04-09T07:15:00;7.90;99.90
8953;DHT22;4511;50.890;8.054;2023-04-09T07:17:27;8.00;99.90
8953;DHT22;4511;50.890;8.054;2023-04-09T07:19:54;8.00;99.90
8953;DHT22;4511;50.890;8.054;2023-04-09T07:22:21;8.00;99.90
8953;DHT22;4511;50.890;8.054;2023-04-09T07:24:50;8.10;99.90
8953;DHT22;4511;50.890;8.054;2023-04-09T07:27:19;8.20;99.90
8953;DHT22;4511;50.890;8.054;2023-04-09T07:29:46;8.40;99.90
8953;DHT22;4511;50.890;8.054;2023-04-09T07:32:13;8.40;99.90
8953;DHT22;4511;50.890;8.054;2023-04-09T07:34:40;8.60;99.90
8953;DHT22;4511;50.890;8.054;2023-04-09T07:37:07;8.60;99.90
8953;DHT22;4511;50.890;8.054;2023-04-09T07:39:34;8.70;99.90
8953;DHT22;4511;50.890;8.054;2023-04-09T07:42:03;8.80;99.90
8953;DHT22;4511;50.890;8.054;2023-04-09T07:44:32;8.90;99.90
8953;DHT22;4511;50.890;8.054;2023-04-09T07:46:59;9.00;99.90
8953;DHT22;4511;50.890;8.054;2023-04-09T07:49:26;9.00;99.90
8953;DHT22;4511;50.890;8.054;2023-04-09T07:51:53;9.10;99.90
8953;DHT22;4511;50.890;8.054;2023-04-09T07:54:19;9.20;99.90
8953;DHT22;4511;50.890;8.054;2023-04-09T07:56:47;9.20;99.90
8953;DHT22;4511;50.890;8.054;2023-04-09T07:59:15;9.30;99.90
8953;DHT22;4511;50.890;8.054;2023-04-09T08:01:42;9.30;99.90
8953;DHT22;4511;50.890;8.054;2023-04-09T08:04:08;9.40;99.90
8953;DHT22;4511;50.890;8.054;2023-04-09T08:06:37;9.40;99.90
8953;DHT22;4511;50.890;8.054;2023-04-09T08:09:04;9.40;99.90
8953;DHT22;4511;50.890;8.054;2023-04-09T08:11:31;9.50;99.90
8953;DHT22;4511;50.890;8.054;2023-04-09T08:13:57;9.60;99.90
8953;DHT22;4511;50.890;8.054;2023-04-09T08:16:29;9.80;99.90
8953;DHT22;4511;50.890;8.054;2023-04-09T08:18:55;9.90;99.90
8953;DHT22;4511;50.890;8.054;2023-04-09T08:21:22;10.00;99.90
8953;DHT22;4511;50.890;8.054;2023-04-09T08:23:49;10.00;99.90
8953;DHT22;4511;50.890;8.054;2023-04-09T08:26:16;10.10;99.90
8953;DHT22;4511;50.890;8.054;2023-04-09T08:28:43;10.20;99.90
8953;DHT22;4511;50.890;8.054;2023-04-09T08:31:10;10.20;99.90
8953;DHT22;4511;50.890;8.054;2023-04-09T08:33:38;10.30;99.90
8953;DHT22;4511;50.890;8.054;2023-04-09T08:36:07;10.30;99.90
8953;DHT22;4511;50.890;8.054;2023-04-09T08:38:35;10.30;99.90
8953;DHT22;4511;50.890;8.054;2023-04-09T08:41:03;10.30;99.90
8953;DHT22;4511;50.890;8.054;2023-04-09T08:43:31;10.50;99.90
8953;DHT22;4511;50.890;8.054;2023-04-09T08:45:59;10.60;99.90
8953;DHT22;4511;50.890;8.054;2023-04-09T08:48:27;10.80;99.90
8953;DHT22;4511;50.890;8.054;2023-04-09T08:50:55;10.90;99.90
8953;DHT22;4511;50.890;8.054;2023-04-09T08:53:22;10.90;99.90
8953;DHT22;4511;50.890;8.054;2023-04-09T08:55:50;11.00;99.90
8953;DHT22;4511;50.890;8.054;2023-04-09T08:58:16;11.00;99.90
8953;DHT22;4511;50.890;8.054;2023-04-09T09:00:43;11.00;99.90
8953;DHT22;4511;50.890;8.054;2023-04-09T09:03:11;11.10;99.90
8953;DHT22;4511;50.890;8.054;2023-04-09T09:05:40;11.00;99.90
8953;DHT22;4511;50.890;8.054;2023-04-09T09:08:09;11.10;99.90
8953;DHT22;4511;50.890;8.054;2023-04-09T09:10:37;11.10;99.90
8953;DHT22;4511;50.890;8.054;2023-04-09T09:13:16;11.20;99.90
8953;DHT22;4511;50.890;8.054;2023-04-09T09:15:43;11.30;99.90
8953;DHT22;4511;50.890;8.054;2023-04-09T09:18:10;11.30;99.90
8953;DHT22;4511;50.890;8.054;2023-04-09T09:20:37;11.50;99.90
8953;DHT22;4511;50.890;8.054;2023-04-09T09:23:04;11.60;99.90
8953;DHT22;4511;50.890;8.054;2023-04-09T09:25:37;11.70;99.90
8953;DHT22;4511;50.890;8.054;2023-04-09T09:28:07;11.80;99.90
8953;DHT22;4511;50.890;8.054;2023-04-09T09:30:35;11.90;99.90
8953;DHT22;4511;50.890;8.054;2023-04-09T09:33:05;11.90;99.90
8953;DHT22;4511;50.890;8.054;2023-04-09T09:35:46;12.10;99.90
8953;DHT22;4511;50.890;8.054;2023-04-09T09:38:13;12.10;99.90
8953;DHT22;4511;50.890;8.054;2023-04-09T09:40:43;12.30;99.90
8953;DHT22;4511;50.890;8.054;2023-04-09T09:43:12;12.30;99.90
8953;DHT22;4511;50.890;8.054;2023-04-09T09:45:39;12.40;99.90
8953;DHT22;4511;50.890;8.054;2023-04-09T09:48:09;12.50;99.90
8953;DHT22;4511;50.890;8.054;2023-04-09T09:50:37;12.40;99.90
8953;DHT22;4511;50.890;8.054;2023-04-09T09:53:07;12.40;99.90
8953;DHT22;4511;50.890;8.054;2023-04-09T09:55:38;12.40;99.90
8953;DHT22;4511;50.890;8.054;2023-04-09T09:58:11;12.60;99.90
8953;DHT22;4511;50.890;8.054;2023-04-09T10:00:43;12.40;99.90
8953;DHT22;4511;50.890;8.054;2023-04-09T10:03:14;12.30;99.90
8953;DHT22;4511;50.890;8.054;2023-04-09T10:05:47;12.40;99.90
8953;DHT22;4511;50.890;8.054;2023-04-09T10:08:14;12.20;99.90
8953;DHT22;4511;50.890;8.054;2023-04-09T10:10:42;12.30;99.90
8953;DHT22;4511;50.890;8.054;2023-04-09T10:13:15;12.60;99.90
8953;DHT22;4511;50.890;8.054;2023-04-09T10:15:44;12.50;99.90
8953;DHT22;4511;50.890;8.054;2023-04-09T10:18:11;12.40;99.90
8953;DHT22;4511;50.890;8.054;2023-04-09T10:20:42;13.10;99.90
8953;DHT22;4511;50.890;8.054;2023-04-09T10:23:20;13.50;99.90
8953;DHT22;4511;50.890;8.054;2023-04-09T10:25:47;13.80;99.90
8953;DHT22;4511;50.890;8.054;2023-04-09T10:28:17;14.30;99.90
8953;DHT22;4511;50.890;8.054;2023-04-09T10:30:44;14.50;99.90
8953;DHT22;4511;50.890;8.054;2023-04-09T10:33:12;14.30;99.70
8953;DHT22;4511;50.890;8.054;2023-04-09T10:35:40;14.00;99.70
8953;DHT22;4511;50.890;8.054;2023-04-09T10:38:07;14.00;99.90
8953;DHT22;4511;50.890;8.054;2023-04-09T10:40:38;14.20;99.90
8953;DHT22;4511;50.890;8.054;2023-04-09T10:43:07;14.40;99.10
8953;DHT22;4511;50.890;8.054;2023-04-09T10:45:42;14.10;97.80
8953;DHT22;4511;50.890;8.054;2023-04-09T10:48:11;13.90;98.10
8953;DHT22;4511;50.890;8.054;2023-04-09T10:50:41;13.90;98.50
8953;DHT22;4511;50.890;8.054;2023-04-09T10:53:20;13.80;99.90
8953;DHT22;4511;50.890;8.054;2023-04-09T10:55:48;14.00;98.70
8953;DHT22;4511;50.890;8.054;2023-04-09T10:58:16;14.20;97.60
8953;DHT22;4511;50.890;8.054;2023-04-09T11:00:45;14.70;98.20
8953;DHT22;4511;50.890;8.054;2023-04-09T11:03:20;15.10;97.50
8953;DHT22;4511;50.890;8.054;2023-04-09T11:05:50;15.20;97.40
8953;DHT22;4511;50.890;8.054;2023-04-09T11:08:18;15.30;96.90
8953;DHT22;4511;50.890;8.054;2023-04-09T11:10:46;15.20;96.70
8953;DHT22;4511;50.890;8.054;2023-04-09T11:13:14;15.30;95.50
8953;DHT22;4511;50.890;8.054;2023-04-09T11:15:42;15.30;95.70
8953;DHT22;4511;50.890;8.054;2023-04-09T11:18:13;15.70;96.30
8953;DHT22;4511;50.890;8.054;2023-04-09T11:20:40;15.80;95.20
8953;DHT22;4511;50.890;8.054;2023-04-09T11:23:07;16.30;96.30
8953;DHT22;4511;50.890;8.054;2023-04-09T11:25:34;16.70;95.60
8953;DHT22;4511;50.890;8.054;2023-04-09T11:28:02;16.30;94.50
8953;DHT22;4511;50.890;8.054;2023-04-09T11:30:29;16.10;94.30
8953;DHT22;4511;50.890;8.054;2023-04-09T11:32:58;15.80;94.50
8953;DHT22;4511;50.890;8.054;2023-04-09T11:35:27;15.40;94.30
8953;DHT22;4511;50.890;8.054;2023-04-09T11:37:54;15.30;94.80
8953;DHT22;4511;50.890;8.054;2023-04-09T11:40:23;15.20;94.20
8953;DHT22;4511;50.890;8.054;2023-04-09T11:42:50;15.00;93.80
8953;DHT22;4511;50.890;8.054;2023-04-09T11:45:19;15.00;94.70
8953;DHT22;4511;50.890;8.054;2023-04-09T11:47:46;15.00;93.80
8953;DHT22;4511;50.890;8.054;2023-04-09T11:50:14;15.20;94.90
8953;DHT22;4511;50.890;8.054;2023-04-09T11:52:44;15.30;95.00
8953;DHT22;4511;50.890;8.054;2023-04-09T11:55:11;15.20;94.00
8953;DHT22;4511;50.890;8.054;2023-04-09T11:57:42;15.00;93.10
8953;DHT22;4511;50.890;8.054;2023-04-09T12:00:10;14.90;93.00
8953;DHT22;4511;50.890;8.054;2023-04-09T12:02:41;14.80;93.50
8953;DHT22;4511;50.890;8.054;2023-04-09T12:05:10;14.70;93.30
8953;DHT22;4511;50.890;8.054;2023-04-09T12:07:39;14.60;94.00
8953;DHT22;4511;50.890;8.054;2023-04-09T12:10:09;14.70;92.90
8953;DHT22;4511;50.890;8.054;2023-04-09T12:12:40;14.60;92.90
8953;DHT22;4511;50.890;8.054;2023-04-09T12:15:25;14.70;92.90
8953;DHT22;4511;50.890;8.054;2023-04-09T12:17:54;14.80;92.80
8953;DHT22;4511;50.890;8.054;2023-04-09T12:20:28;14.80;91.90
8953;DHT22;4511;50.890;8.054;2023-04-09T12:22:56;14.80;91.70
8953;DHT22;4511;50.890;8.054;2023-04-09T12:25:26;15.00;92.30
8953;DHT22;4511;50.890;8.054;2023-04-09T12:27:54;15.20;91.50
8953;DHT22;4511;50.890;8.054;2023-04-09T12:30:21;15.20;90.70
8953;DHT22;4511;50.890;8.054;2023-04-09T12:32:49;15.20;90.80
8953;DHT22;4511;50.890;8.054;2023-04-09T12:35:16;15.10;91.30
8953;DHT22;4511;50.890;8.054;2023-04-09T12:37:43;15.10;90.90
8953;DHT22;4511;50.890;8.054;2023-04-09T12:40:10;15.00;90.90
8953;DHT22;4511;50.890;8.054;2023-04-09T12:42:39;14.90;91.20
8953;DHT22;4511;50.890;8.054;2023-04-09T12:45:08;14.90;91.20
8953;DHT22;4511;50.890;8.054;2023-04-09T12:47:35;15.10;91.50
8953;DHT22;4511;50.890;8.054;2023-04-09T12:50:02;15.00;89.70
8953;DHT22;4511;50.890;8.054;2023-04-09T12:52:29;14.90;90.40
8953;DHT22;4511;50.890;8.054;2023-04-09T12:54:56;14.80;90.10
8953;DHT22;4511;50.890;8.054;2023-04-09T12:57:23;14.80;91.20
8953;DHT22;4511;50.890;8.054;2023-04-09T12:59:51;15.00;90.80
8953;DHT22;4511;50.890;8.054;2023-04-09T13:02:18;15.00;90.80
8953;DHT22;4511;50.890;8.054;2023-04-09T13:04:45;15.00;91.50
8953;DHT22;4511;50.890;8.054;2023-04-09T13:07:13;14.90;91.20
8953;DHT22;4511;50.890;8.054;2023-04-09T13:09:41;14.70;91.40
8953;DHT22;4511;50.890;8.054;2023-04-09T13:12:08;14.60;91.40
8953;DHT22;4511;50.890;8.054;2023-04-09T13:14:37;14.60;90.90
8953;DHT22;4511;50.890;8.054;2023-04-09T13:17:06;14.50;91.00
8953;DHT22;4511;50.890;8.054;2023-04-09T13:19:33;14.60;90.60
8953;DHT22;4511;50.890;8.054;2023-04-09T13:22:00;14.70;90.50
8953;DHT22;4511;50.890;8.054;2023-04-09T13:24:27;14.80;90.40
8953;DHT22;4511;50.890;8.054;2023-04-09T13:26:54;14.80;91.00
8953;DHT22;4511;50.890;8.054;2023-04-09T13:29:21;14.70;89.50
8953;DHT22;4511;50.890;8.054;2023-04-09T13:31:50;14.50;90.60
8953;DHT22;4511;50.890;8.054;2023-04-09T13:34:20;14.60;90.30
8953;DHT22;4511;50.890;8.054;2023-04-09T13:36:47;14.70;90.40
8953;DHT22;4511;50.890;8.054;2023-04-09T13:39:13;14.80;90.30
8953;DHT22;4511;50.890;8.054;2023-04-09T13:41:40;14.90;90.00
8953;DHT22;4511;50.890;8.054;2023-04-09T13:44:07;14.80;90.60
8953;DHT22;4511;50.890;8.054;2023-04-09T13:46:34;14.90;90.10
8953;DHT22;4511;50.890;8.054;2023-04-09T13:49:00;14.70;89.40
8953;DHT22;4511;50.890;8.054;2023-04-09T13:51:29;14.80;90.70
8953;DHT22;4511;50.890;8.054;2023-04-09T13:53:56;14.70;89.80
8953;DHT22;4511;50.890;8.054;2023-04-09T13:56:23;14.50;90.30
8953;DHT22;4511;50.890;8.054;2023-04-09T13:58:49;14.40;89.00
8953;DHT22;4511;50.890;8.054;2023-04-09T14:01:16;14.50;90.10
8953;DHT22;4511;50.890;8.054;2023-04-09T14:03:43;14.50;88.60
8953;DHT22;4511;50.890;8.054;2023-04-09T14:06:10;14.40;89.20
8953;DHT22;4511;50.890;8.054;2023-04-09T14:08:39;14.40;89.30
8953;DHT22;4511;50.890;8.054;2023-04-09T14:11:06;14.50;89.80
8953;DHT22;4511;50.890;8.054;2023-04-09T14:13:32;14.60;90.10
8953;DHT22;4511;50.890;8.054;2023-04-09T14:15:59;14.60;90.30
8953;DHT22;4511;50.890;8.054;2023-04-09T14:18:26;14.60;90.10
8953;DHT22;4511;50.890;8.054;2023-04-09T14:20:53;14.70;90.10
8953;DHT22;4511;50.890;8.054;2023-04-09T14:23:20;14.60;89.60
8953;DHT22;4511;50.890;8.054;2023-04-09T14:25:48;14.60;90.00
8953;DHT22;4511;50.890;8.054;2023-04-09T14:28:14;14.50;88.70
8953;DHT22;4511;50.890;8.054;2023-04-09T14:30:42;14.60;89.50
8953;DHT22;4511;50.890;8.054;2023-04-09T14:33:08;14.60;90.00
8953;DHT22;4511;50.890;8.054;2023-04-09T14:35:35;14.60;89.20
8953;DHT22;4511;50.890;8.054;2023-04-09T14:38:02;14.50;89.40
8953;DHT22;4511;50.890;8.054;2023-04-09T14:40:29;14.60;89.60
8953;DHT22;4511;50.890;8.054;2023-04-09T14:42:58;14.50;90.10
8953;DHT22;4511;50.890;8.054;2023-04-09T14:45:25;14.90;90.00
8953;DHT22;4511;50.890;8.054;2023-04-09T14:47:52;15.20;88.60
8953;DHT22;4511;50.890;8.054;2023-04-09T14:50:19;15.10;88.70
8953;DHT22;4511;50.890;8.054;2023-04-09T14:52:46;14.70;88.50
8953;DHT22;4511;50.890;8.054;2023-04-09T14:55:13;14.70;88.90
8953;DHT22;4511;50.890;8.054;2023-04-09T14:57:40;14.60;89.70
8953;DHT22;4511;50.890;8.054;2023-04-09T15:00:10;14.60;90.50
8953;DHT22;4511;50.890;8.054;2023-04-09T15:02:37;14.60;90.00
8953;DHT22;4511;50.890;8.054;2023-04-09T15:05:05;14.50;89.80
8953;DHT22;4511;50.890;8.054;2023-04-09T15:07:33;14.40;89.70
8953;DHT22;4511;50.890;8.054;2023-04-09T15:10:00;14.40;91.00
8953;DHT22;4511;50.890;8.054;2023-04-09T15:12:27;14.40;90.40
8953;DHT22;4511;50.890;8.054;2023-04-09T15:14:54;14.30;89.40
8953;DHT22;4511;50.890;8.054;2023-04-09T15:17:22;14.10;91.00
8953;DHT22;4511;50.890;8.054;2023-04-09T15:19:49;14.10;90.20
8953;DHT22;4511;50.890;8.054;2023-04-09T15:22:16;14.10;91.00
8953;DHT22;4511;50.890;8.054;2023-04-09T15:24:43;14.10;91.00
8953;DHT22;4511;50.890;8.054;2023-04-09T15:27:10;14.00;90.90
8953;DHT22;4511;50.890;8.054;2023-04-09T15:29:36;14.00;91.40
8953;DHT22;4511;50.890;8.054;2023-04-09T15:32:03;13.90;91.50
8953;DHT22;4511;50.890;8.054;2023-04-09T15:34:31;14.00;91.60
8953;DHT22;4511;50.890;8.054;2023-04-09T15:36:58;14.00;91.90
8953;DHT22;4511;50.890;8.054;2023-04-09T15:39:25;14.00;91.30
8953;DHT22;4511;50.890;8.054;2023-04-09T15:41:53;14.00;91.40
8953;DHT22;4511;50.890;8.054;2023-04-09T15:44:21;14.00;92.20
8953;DHT22;4511;50.890;8.054;2023-04-09T15:46:47;14.00;91.50
8953;DHT22;4511;50.890;8.054;2023-04-09T15:49:15;13.90;91.40
8953;DHT22;4511;50.890;8.054;2023-04-09T15:51:45;13.90;91.10
8953;DHT22;4511;50.890;8.054;2023-04-09T15:54:12;13.80;90.80
8953;DHT22;4511;50.890;8.054;2023-04-09T15:56:38;13.80;91.40
8953;DHT22;4511;50.890;8.054;2023-04-09T15:59:06;13.80;91.20
8953;DHT22;4511;50.890;8.054;2023-04-09T16:01:32;13.70;91.60
8953;DHT22;4511;50.890;8.054;2023-04-09T16:04:01;13.70;91.30
8953;DHT22;4511;50.890;8.054;2023-04-09T16:06:28;13.60;91.30
8953;DHT22;4511;50.890;8.054;2023-04-09T16:08:57;13.50;91.40
8953;DHT22;4511;50.890;8.054;2023-04-09T16:11:23;13.50;91.80
8953;DHT22;4511;50.890;8.054;2023-04-09T16:13:51;13.40;91.40
8953;DHT22;4511;50.890;8.054;2023-04-09T16:16:18;13.30;91.20